Time;durP1;ratioP1;P1;durP2;ratioP2;P2;SDS_P1;SDS_P2;PMS_P1;PMS_P2;Temp;Humidity;BMP_temperature;BMP_pressure;BME280_temperature;BME280_humidity;BME280_pressure;Samples;Min_cycle;Max_cycle;Signal;HPM_P1;HPM_P2
2021/04/04 00:00:12;;;;;;;10.48;3.33;;;22.00;30.50;;;;;;5066113;28;20025;-70
2021/04/04 00:02:38;;;;;;;12.02;3.40;;;22.00;30.60;;;;;;5054299;28;20029;-70
2021/04/04 00:05:05;;;;;;;10.85;3.17;;;22.00;30.60;;;;;;5047495;28;20031;-69
2021/04/04 00:07:30;;;;;;;13.27;2.88;;;22.00;30.60;;;;;;5047671;28;20120;-70
2021/04/04 00:09:56;;;;;;;14.32;3.10;;;22.00;30.70;;;;;;5023892;28;20112;-69
2021/04/04 00:12:22;;;;;;;11.98;3.00;;;22.00;30.70;;;;;;5047752;28;20411;-69
2021/04/04 00:14:47;;;;;;;15.63;3.72;;;21.90;30.70;;;;;;5069865;28;20477;-69
2021/04/04 00:17:13;;;;;;;14.10;3.40;;;22.00;30.70;;;;;;5065970;28;20056;-70
2021/04/04 00:19:38;;;;;;;14.30;4.13;;;21.90;30.70;;;;;;5066795;28;20023;-70
2021/04/04 00:22:07;;;;;;;7.90;3.13;;;21.90;30.80;;;;;;5044286;28;20036;-69
2021/04/04 00:24:33;;;;;;;13.02;3.30;;;21.90;30.80;;;;;;5039433;28;20107;-70
2021/04/04 00:26:58;;;;;;;10.82;3.28;;;21.90;30.90;;;;;;5069774;28;20096;-70
2021/04/04 00:29:24;;;;;;;10.48;2.97;;;21.80;30.80;;;;;;5076444;28;20033;-70
2021/04/04 00:31:49;;;;;;;9.65;3.55;;;21.80;31.50;;;;;;5062786;28;20056;-70
2021/04/04 00:34:15;;;;;;;11.02;3.42;;;21.80;30.90;;;;;;5057201;28;20078;-70
2021/04/04 00:36:40;;;;;;;13.77;3.78;;;21.80;30.90;;;;;;5055691;28;20036;-70
2021/04/04 00:39:10;;;;;;;11.80;3.92;;;21.80;31.00;;;;;;5082564;28;20051;-70
2021/04/04 00:41:36;;;;;;;10.65;3.15;;;21.80;31.00;;;;;;5040529;28;20337;-70
2021/04/04 00:44:02;;;;;;;10.05;3.13;;;21.70;30.90;;;;;;5037523;28;20048;-70
2021/04/04 00:46:28;;;;;;;10.05;3.00;;;21.70;31.00;;;;;;5089216;28;20028;-70
2021/04/04 00:49:09;;;;;;;13.20;3.67;;;21.70;31.00;;;;;;5080803;28;20048;-70
2021/04/04 00:51:34;;;;;;;12.73;3.13;;;21.70;31.00;;;;;;5049437;28;20057;-70
2021/04/04 00:54:00;;;;;;;9.40;3.15;;;21.70;31.10;;;;;;5061993;28;20437;-70
2021/04/04 00:56:25;;;;;;;7.47;2.83;;;21.60;31.10;;;;;;5063294;28;20104;-71
2021/04/04 00:58:52;;;;;;;12.10;3.00;;;21.60;31.10;;;;;;5056750;28;20024;-71
2021/04/04 01:01:17;;;;;;;13.35;3.63;;;21.60;31.10;;;;;;5045538;28;20056;-70
2021/04/04 01:03:43;;;;;;;11.75;3.42;;;21.60;31.10;;;;;;5046411;28;20063;-71
2021/04/04 01:06:09;;;;;;;15.75;3.50;;;21.60;31.10;;;;;;5072225;28;20520;-71
2021/04/04 01:08:38;;;;;;;11.10;3.33;;;21.60;31.10;;;;;;5049378;28;20052;-70
2021/04/04 01:11:04;;;;;;;11.93;3.30;;;21.60;31.10;;;;;;5087859;28;20024;-70
2021/04/04 01:13:40;;;;;;;8.70;3.33;;;21.60;31.10;;;;;;5035618;28;20025;-70
2021/04/04 01:16:06;;;;;;;;;;;21.60;31.10;;;;;;5068253;28;20024;-71
2021/04/04 01:18:39;;;;;;;17.45;4.50;;;21.60;31.10;;;;;;5035711;28;19909;-71
2021/04/04 01:21:08;;;;;;;13.98;3.92;;;21.70;31.10;;;;;;5072147;28;20020;-71
2021/04/04 01:24:07;;;;;;;16.27;3.75;;;21.60;31.00;;;;;;5072983;28;20024;-71
2021/04/04 01:26:45;;;;;;;10.20;3.25;;;21.60;31.00;;;;;;5051920;28;20029;-70
2021/04/04 01:29:10;;;;;;;13.40;3.92;;;21.60;31.00;;;;;;5069807;28;20434;-71
2021/04/04 01:31:36;;;;;;;13.18;3.78;;;21.60;31.00;;;;;;5052608;28;20450;-71
2021/04/04 01:34:02;;;;;;;11.07;3.78;;;21.60;31.10;;;;;;5017342;28;20671;-71
2021/04/04 01:36:27;;;;;;;7.97;3.17;;;21.60;31.10;;;;;;5050164;28;20030;-71
2021/04/04 01:38:53;;;;;;;11.20;3.28;;;21.60;31.10;;;;;;5056818;28;20052;-69
2021/04/04 01:41:26;;;;;;;10.80;3.72;;;21.60;31.10;;;;;;5066120;28;20103;-69
2021/04/04 01:43:56;;;;;;;12.90;3.55;;;21.60;31.10;;;;;;5057401;28;20027;-68
2021/04/04 01:46:21;;;;;;;13.93;3.60;;;21.60;31.10;;;;;;5081534;28;20033;-69
2021/04/04 01:48:47;;;;;;;15.02;3.50;;;21.60;31.10;;;;;;5087078;28;20044;-69
2021/04/04 01:51:12;;;;;;;12.68;4.03;;;21.50;31.10;;;;;;5052884;28;20127;-70
2021/04/04 01:53:41;;;;;;;11.63;4.07;;;21.60;31.20;;;;;;5032480;28;20052;-70
2021/04/04 01:56:07;;;;;;;10.52;3.35;;;21.60;31.20;;;;;;5064826;28;20030;-70
2021/04/04 01:58:32;;;;;;;11.38;3.47;;;21.60;31.20;;;;;;5074771;28;20031;-70
2021/04/04 02:00:58;;;;;;;10.63;2.97;;;21.60;31.20;;;;;;5054543;28;20377;-70
2021/04/04 02:03:23;;;;;;;11.95;3.75;;;21.60;31.20;;;;;;5038775;28;20044;-70
2021/04/04 02:05:52;;;;;;;11.70;3.80;;;21.50;31.20;;;;;;5052181;28;20103;-70
2021/04/04 02:08:18;;;;;;;17.40;3.70;;;21.50;31.20;;;;;;5053440;28;20029;-70
2021/04/04 02:10:43;;;;;;;13.40;3.92;;;21.50;31.20;;;;;;5053852;28;20031;-70
2021/04/04 02:13:09;;;;;;;16.85;4.03;;;21.50;31.20;;;;;;5051577;28;20521;-70
2021/04/04 02:15:34;;;;;;;12.27;4.03;;;21.50;31.20;;;;;;5051017;28;20029;-70
2021/04/04 02:18:00;;;;;;;14.15;4.22;;;21.50;31.20;;;;;;5036839;28;20028;-70
2021/04/04 02:24:07;;;;;;;10.68;4.05;;;21.50;31.30;;;;;;5062462;28;20063;-70
2021/04/04 02:26:32;;;;;;;13.38;4.38;;;21.50;31.30;;;;;;5035620;28;20043;-70
2021/04/04 02:29:07;;;;;;;14.93;4.25;;;21.50;31.30;;;;;;5053547;28;20028;-69
2021/04/04 02:31:37;;;;;;;16.53;4.27;;;21.40;31.30;;;;;;5030387;28;20042;-69
2021/04/04 02:34:23;;;;;;;12.32;4.10;;;21.40;31.40;;;;;;5023051;28;20022;-70
2021/04/04 02:36:52;;;;;;;18.80;4.25;;;21.40;31.40;;;;;;5021738;28;20524;-70
2021/04/04 02:39:29;;;;;;;12.57;4.10;;;21.40;31.40;;;;;;5018547;28;20076;-70
2021/04/04 02:45:17;;;;;;;8.20;3.58;;;21.40;31.40;;;;;;5025129;28;20031;-70
2021/04/04 02:47:49;;;;;;;11.45;3.90;;;21.40;31.50;;;;;;5026110;28;20025;-70
2021/04/04 02:50:15;;;;;;;13.43;3.95;;;21.40;31.50;;;;;;5051700;28;20065;-70
2021/04/04 02:52:42;;;;;;;13.13;3.45;;;21.30;31.50;;;;;;5029791;28;20525;-70
2021/04/04 02:55:08;;;;;;;11.50;4.18;;;21.30;31.50;;;;;;5008067;28;20424;-74
2021/04/04 02:57:33;;;;;;;14.25;3.97;;;21.30;31.60;;;;;;5027184;28;20045;-74
2021/04/04 03:00:01;;;;;;;12.75;3.72;;;21.30;31.60;;;;;;5027358;28;20025;-74
2021/04/04 03:02:26;;;;;;;13.45;4.32;;;21.30;31.60;;;;;;5020959;28;20034;-75
2021/04/04 03:04:52;;;;;;;13.93;4.40;;;21.30;31.60;;;;;;5028102;28;20029;-74
2021/04/04 03:07:19;;;;;;;14.48;4.25;;;21.40;31.60;;;;;;5019004;28;20084;-75
2021/04/04 03:09:47;;;;;;;14.77;4.10;;;21.30;31.50;;;;;;5027173;28;20033;-74
2021/04/04 03:12:13;;;;;;;12.75;3.83;;;21.40;31.60;;;;;;5051153;28;20108;-73
2021/04/04 03:14:39;;;;;;;9.27;3.60;;;21.40;31.60;;;;;;5025709;28;20045;-74
2021/04/04 03:17:05;;;;;;;13.55;4.03;;;21.40;31.60;;;;;;5029935;28;20025;-75
2021/04/04 03:19:30;;;;;;;13.95;4.68;;;21.40;31.60;;;;;;5029835;28;20026;-75
2021/04/04 03:21:56;;;;;;;17.10;4.40;;;21.40;32.20;;;;;;5028737;28;20025;-74
2021/04/04 03:24:22;;;;;;;12.95;4.15;;;21.40;31.50;;;;;;5025967;28;20524;-74
2021/04/04 03:26:47;;;;;;;13.88;4.03;;;21.40;31.50;;;;;;5060291;28;20095;-74
2021/04/04 03:29:13;;;;;;;15.73;4.38;;;21.40;31.50;;;;;;5028497;28;20029;-74
2021/04/04 03:31:39;;;;;;;13.30;4.35;;;21.40;31.50;;;;;;5045942;28;20522;-73
2021/04/04 03:34:04;;;;;;;16.55;4.38;;;21.40;31.50;;;;;;5046495;28;20025;-73
2021/04/04 03:36:30;;;;;;;15.40;4.25;;;21.40;31.60;;;;;;5062568;28;20087;-74
2021/04/04 03:38:55;;;;;;;12.32;4.35;;;21.40;31.60;;;;;;5044504;28;20033;-73
2021/04/04 03:41:22;;;;;;;12.80;4.28;;;21.40;31.60;;;;;;5039465;28;20028;-73
2021/04/04 03:43:49;;;;;;;9.55;3.95;;;21.40;31.60;;;;;;5043434;28;20044;-74
2021/04/04 03:46:33;;;;;;;10.95;3.80;;;21.30;31.60;;;;;;5043648;28;20042;-74
2021/04/04 03:48:59;;;;;;;15.30;4.50;;;21.30;31.60;;;;;;5026446;28;20449;-75
2021/04/04 03:51:25;;;;;;;12.70;3.90;;;21.30;31.60;;;;;;5020008;28;20155;-75
2021/04/04 03:53:51;;;;;;;13.75;4.03;;;21.30;31.70;;;;;;5013974;28;20505;-75
2021/04/04 03:56:29;;;;;;;14.38;4.72;;;21.30;31.70;;;;;;5029963;28;20126;-76
2021/04/04 03:58:55;;;;;;;12.40;4.28;;;21.30;31.80;;;;;;5035048;28;20036;-74
2021/04/04 04:01:23;;;;;;;0.32;0.32;;;21.30;31.90;;;;;;5032360;28;20029;-75
2021/04/04 04:03:49;;;;;;;2.63;0.45;;;21.30;31.90;;;;;;5029592;28;20022;-74
2021/04/04 04:06:14;;;;;;;0.13;0.13;;;21.30;31.90;;;;;;5050094;28;20025;-74
2021/04/04 04:08:40;;;;;;;0.20;0.20;;;21.30;31.90;;;;;;5015827;28;20032;-74
2021/04/04 04:11:07;;;;;;;0.57;0.57;;;21.30;32.00;;;;;;5038920;28;20033;-74
2021/04/04 04:13:33;;;;;;;0.25;0.25;;;21.30;32.10;;;;;;5032412;28;20033;-74
2021/04/04 04:15:58;;;;;;;0.47;0.10;;;21.20;32.00;;;;;;5033628;28;20029;-69
2021/04/04 04:18:24;;;;;;;0.20;0.20;;;21.20;32.00;;;;;;5047797;28;20521;-70
2021/04/04 04:20:49;;;;;;;0.73;0.73;;;21.20;32.00;;;;;;5047486;28;20402;-70
2021/04/04 04:23:15;;;;;;;0.50;0.47;;;21.20;32.00;;;;;;5030768;28;20034;-70
2021/04/04 04:25:41;;;;;;;0.30;0.30;;;21.20;32.00;;;;;;5047618;28;20029;-70
2021/04/04 04:28:07;;;;;;;1.30;0.30;;;21.20;32.10;;;;;;5029842;28;20501;-70
2021/04/04 04:30:33;;;;;;;0.28;0.25;;;21.20;32.10;;;;;;5032534;28;20105;-70
2021/04/04 04:33:00;;;;;;;0.35;0.35;;;21.20;32.10;;;;;;5010106;28;20033;-70
2021/04/04 04:35:26;;;;;;;0.25;0.20;;;21.20;32.10;;;;;;5032148;28;20017;-71
2021/04/04 04:37:52;;;;;;;0.55;0.28;;;21.20;32.20;;;;;;5029475;28;20034;-71
2021/04/04 04:40:18;;;;;;;0.55;0.20;;;21.10;32.20;;;;;;5019828;28;20105;-71
2021/04/04 04:42:46;;;;;;;0.25;0.25;;;21.20;32.30;;;;;;5047822;28;20036;-70
2021/04/04 04:48:34;;;;;;;4.53;0.88;;;21.10;32.20;;;;;;5033176;28;20420;-70
2021/04/04 04:50:59;;;;;;;0.80;0.35;;;21.10;32.30;;;;;;5047046;28;20037;-70
2021/04/04 04:53:25;;;;;;;0.25;0.25;;;21.10;32.30;;;;;;5046982;28;20119;-70
2021/04/04 04:56:13;;;;;;;0.22;0.22;;;21.10;32.30;;;;;;5046530;28;20033;-70
2021/04/04 04:58:38;;;;;;;0.55;0.55;;;21.10;32.30;;;;;;5058310;28;20060;-70
2021/04/04 05:01:06;;;;;;;1.38;0.50;;;21.10;32.30;;;;;;5029269;28;20485;-70
2021/04/04 05:03:32;;;;;;;2.55;0.43;;;21.10;32.30;;;;;;5027237;28;20033;-70
2021/04/04 05:06:25;;;;;;;0.45;0.45;;;21.10;32.30;;;;;;5030627;28;20041;-70
2021/04/04 05:08:50;;;;;;;0.20;0.20;;;21.10;32.20;;;;;;5028188;28;20094;-70
2021/04/04 05:11:17;;;;;;;0.88;0.47;;;21.10;32.20;;;;;;5045778;28;20455;-70
2021/04/04 05:13:42;;;;;;;6.97;0.63;;;21.10;32.20;;;;;;5027697;28;20032;-70
2021/04/04 05:16:09;;;;;;;0.08;0.08;;;21.10;32.20;;;;;;5031881;28;20037;-70
2021/04/04 05:18:35;;;;;;;0.30;0.30;;;21.10;32.80;;;;;;5017279;28;20030;-71
2021/04/04 05:21:01;;;;;;;0.28;0.28;;;21.10;32.20;;;;;;5028891;28;20022;-71
2021/04/04 05:23:27;;;;;;;0.40;0.22;;;21.10;32.20;;;;;;5046251;28;20043;-71
2021/04/04 05:25:52;;;;;;;0.35;0.25;;;21.10;32.10;;;;;;5012490;28;20112;-71
2021/04/04 05:28:18;;;;;;;0.38;0.17;;;21.10;32.10;;;;;;5017216;28;20116;-71
2021/04/04 05:30:44;;;;;;;0.25;0.20;;;21.10;32.90;;;;;;5047790;28;20049;-71
2021/04/04 05:33:09;;;;;;;0.15;0.15;;;21.10;32.20;;;;;;5029921;28;20049;-71
2021/04/04 05:35:39;;;;;;;0.47;0.30;;;21.10;32.20;;;;;;5044514;28;20670;-71
2021/04/04 05:38:05;;;;;;;2.08;0.22;;;21.10;32.20;;;;;;5031222;28;20040;-71
2021/04/04 05:40:30;;;;;;;0.28;0.28;;;21.10;32.20;;;;;;5032847;28;20060;-71
2021/04/04 05:43:00;;;;;;;0.25;0.17;;;21.10;32.20;;;;;;5031831;28;20060;-70
2021/04/04 05:45:36;;;;;;;1.80;0.50;;;21.10;32.20;;;;;;5059083;28;20030;-70
2021/04/04 05:48:16;;;;;;;0.47;0.47;;;21.10;32.20;;;;;;5040934;28;20053;-70
2021/04/04 05:50:54;;;;;;;0.10;0.10;;;21.10;32.20;;;;;;5038900;28;20421;-70
2021/04/04 05:53:47;;;;;;;2.65;0.98;;;21.10;32.20;;;;;;5028912;28;20030;-70
2021/04/04 05:56:18;;;;;;;0.75;0.57;;;21.10;32.40;;;;;;5029471;28;20037;-69
2021/04/04 05:58:50;;;;;;;0.30;0.30;;;21.10;32.20;;;;;;5026264;28;20026;-74
2021/04/04 06:01:28;;;;;;;7.72;0.68;;;21.00;32.20;;;;;;5030395;28;20021;-73
2021/04/04 06:04:26;;;;;;;2.17;0.63;;;21.00;32.20;;;;;;5025609;28;20437;-73
2021/04/04 06:07:03;;;;;;;0.47;0.38;;;21.00;32.20;;;;;;5025171;28;20083;-72
2021/04/04 06:10:04;;;;;;;1.52;1.08;;;21.00;32.30;;;;;;5037393;28;20512;-73
2021/04/04 06:12:44;;;;;;;0.77;0.47;;;21.00;32.30;;;;;;5015008;28;20452;-72
2021/04/04 06:15:33;;;;;;;0.45;0.30;;;21.00;32.20;;;;;;5058773;28;20411;-73
2021/04/04 06:18:31;;;;;;;0.20;0.20;;;21.00;32.20;;;;;;5054364;28;20413;-73
2021/04/04 06:21:02;;;;;;;0.22;0.22;;;21.00;32.20;;;;;;5023808;28;20570;-73
2021/04/04 06:23:39;;;;;;;0.20;0.20;;;21.00;32.30;;;;;;5005933;28;20025;-73
2021/04/04 06:26:21;;;;;;;1.38;0.40;;;21.00;32.30;;;;;;5026871;28;20517;-73
2021/04/04 06:28:59;;;;;;;0.20;0.20;;;21.00;32.30;;;;;;5036453;28;20020;-73
2021/04/04 06:31:29;;;;;;;1.20;0.47;;;20.90;32.20;;;;;;5044915;28;20429;-73
2021/04/04 06:34:29;;;;;;;0.70;0.32;;;20.90;32.20;;;;;;5027418;28;20029;-73
2021/04/04 06:37:43;;;;;;;0.30;0.30;;;21.00;32.30;;;;;;5030160;28;20405;-73
2021/04/04 06:40:12;;;;;;;1.45;0.28;;;20.90;32.40;;;;;;4988872;28;20062;-73
2021/04/04 06:42:56;;;;;;;0.20;0.20;;;20.90;32.60;;;;;;5004937;28;20030;-73
2021/04/04 06:45:45;;;;;;;0.47;0.43;;;20.90;32.70;;;;;;4998281;28;20379;-73
2021/04/04 06:48:20;;;;;;;0.40;0.30;;;21.00;32.80;;;;;;4973745;28;20073;-73
2021/04/04 06:50:49;;;;;;;0.15;0.15;;;21.00;32.80;;;;;;4981873;28;20065;-73
2021/04/04 06:53:22;;;;;;;0.10;0.10;;;21.10;32.80;;;;;;4982208;28;20042;-73
2021/04/04 06:55:51;;;;;;;0.52;0.52;;;21.10;32.70;;;;;;5005128;28;20026;-73
2021/04/04 06:58:36;;;;;;;0.43;0.20;;;21.20;32.70;;;;;;4995100;28;20042;-73
2021/04/04 07:01:11;;;;;;;0.75;0.20;;;21.30;32.50;;;;;;4985180;28;20430;-73
2021/04/04 07:04:00;;;;;;;;;;;21.30;32.40;;;;;;5004787;28;20047;-73
2021/04/04 07:06:26;;;;;;;0.47;0.40;;;21.40;32.30;;;;;;4988924;28;19960;-73
2021/04/04 07:09:42;;;;;;;0.32;0.25;;;21.50;32.20;;;;;;4990209;28;20062;-73
2021/04/04 07:12:15;;;;;;;0.80;0.20;;;21.60;32.00;;;;;;4968538;28;20077;-73
2021/04/04 07:14:59;;;;;;;0.52;0.15;;;21.60;31.90;;;;;;4951329;28;20045;-73
2021/04/04 07:17:55;;;;;;;0.80;0.43;;;21.70;31.90;;;;;;4972135;28;20566;-73
2021/04/04 07:20:39;;;;;;;0.30;0.30;;;21.70;31.80;;;;;;4965129;28;20045;-73
2021/04/04 07:23:33;;;;;;;5.07;0.20;;;21.80;31.70;;;;;;4956214;28;20070;-74
2021/04/04 07:26:22;;;;;;;0.57;0.30;;;21.80;31.60;;;;;;4949782;28;20043;-73
2021/04/04 07:32:31;;;;;;;2.50;0.50;;;21.90;31.50;;;;;;4981743;28;20069;-74
2021/04/04 07:35:58;;;;;;;0.40;0.10;;;21.90;31.40;;;;;;4948009;28;20054;-74
2021/04/04 07:38:46;;;;;;;0.60;0.30;;;21.90;31.40;;;;;;4935564;29;20091;-73
2021/04/04 07:41:33;;;;;;;2.53;0.80;;;22.00;31.30;;;;;;4915215;29;20043;-75
2021/04/04 07:44:18;;;;;;;0.25;0.25;;;22.00;31.10;;;;;;4934389;29;20035;-73
2021/04/04 07:46:55;;;;;;;0.38;0.20;;;22.10;31.70;;;;;;4926696;29;20066;-73
2021/04/04 07:49:30;;;;;;;0.32;0.28;;;22.20;31.20;;;;;;4892173;29;20532;-70
2021/04/04 07:51:56;;;;;;;2.92;1.00;;;22.20;30.90;;;;;;4885575;29;20048;-71
2021/04/04 07:54:52;;;;;;;1.05;0.40;;;22.30;31.50;;;;;;4880619;29;20047;-72
2021/04/04 07:57:22;;;;;;;0.95;0.05;;;22.30;30.80;;;;;;4899378;29;20048;-75
2021/04/04 07:59:48;;;;;;;0.30;0.20;;;22.30;30.70;;;;;;4886924;29;20425;-75
2021/04/04 08:02:30;;;;;;;2.38;0.38;;;22.30;30.70;;;;;;4914972;29;20040;-74
2021/04/04 08:05:04;;;;;;;0.20;0.20;;;22.30;30.60;;;;;;4894404;29;20032;-71
2021/04/04 08:07:32;;;;;;;4.35;0.88;;;22.30;30.70;;;;;;4885483;29;20641;-71
2021/04/04 08:10:18;;;;;;;1.38;0.52;;;22.40;30.90;;;;;;4889656;29;20036;-71
2021/04/04 08:13:06;;;;;;;0.65;0.43;;;22.30;30.70;;;;;;4891304;29;20063;-76
2021/04/04 08:16:08;;;;;;;0.20;0.20;;;22.40;30.80;;;;;;4959831;28;20046;-75
2021/04/04 08:18:35;;;;;;;1.75;0.75;;;22.40;30.90;;;;;;4930870;29;20059;-76
2021/04/04 08:21:05;;;;;;;0.47;0.20;;;22.40;31.00;;;;;;4934227;29;20039;-76
2021/04/04 08:23:35;;;;;;;2.90;0.65;;;22.30;31.00;;;;;;4935034;28;20031;-75
2021/04/04 08:26:08;;;;;;;0.20;0.20;;;22.30;30.90;;;;;;4931721;29;20452;-75
2021/04/04 08:28:40;;;;;;;3.05;0.30;;;22.30;31.00;;;;;;4933316;29;20035;-75
2021/04/04 08:31:27;;;;;;;0.40;0.40;;;22.40;31.00;;;;;;4931148;29;20663;-75
2021/04/04 08:34:11;;;;;;;4.45;0.43;;;22.30;31.00;;;;;;4956919;28;20131;-75
2021/04/04 08:36:38;;;;;;;0.60;0.60;;;22.30;31.00;;;;;;4961636;28;20043;-75
2021/04/04 08:39:04;;;;;;;0.20;0.20;;;22.30;31.10;;;;;;4951013;28;20031;-74
2021/04/04 08:41:33;;;;;;;0.35;0.20;;;22.30;31.10;;;;;;4952442;28;20114;-74
2021/04/04 08:44:01;;;;;;;0.73;0.68;;;22.30;31.00;;;;;;4958709;28;20023;-75
2021/04/04 08:46:39;;;;;;;0.13;0.13;;;22.40;30.90;;;;;;4947206;28;20039;-74
2021/04/04 08:49:05;;;;;;;0.68;0.68;;;22.30;31.00;;;;;;4944208;28;20038;-74
2021/04/04 08:51:33;;;;;;;1.38;0.60;;;22.30;30.90;;;;;;4959312;28;20520;-74
2021/04/04 08:54:01;;;;;;;1.95;0.82;;;22.30;30.90;;;;;;5012880;28;20017;-75
2021/04/04 08:56:27;;;;;;;0.40;0.30;;;22.30;30.80;;;;;;5038373;28;20036;-74
2021/04/04 08:58:54;;;;;;;0.40;0.20;;;22.30;30.80;;;;;;5046120;28;20032;-75
2021/04/04 09:01:32;;;;;;;0.20;0.20;;;22.30;30.80;;;;;;5046808;28;20078;-75
2021/04/04 09:03:59;;;;;;;0.20;0.20;;;22.30;30.80;;;;;;5051591;28;20050;-76
2021/04/04 09:06:26;;;;;;;3.28;0.90;;;22.30;31.00;;;;;;5022556;28;20041;-75
2021/04/04 09:08:51;;;;;;;2.25;1.05;;;22.30;30.70;;;;;;5050911;28;20021;-74
2021/04/04 09:11:17;;;;;;;1.05;0.65;;;22.40;30.80;;;;;;5051276;28;20530;-75
2021/04/04 09:13:42;;;;;;;1.52;0.98;;;22.40;30.60;;;;;;5041157;28;20040;-74
2021/04/04 09:16:09;;;;;;;0.40;0.40;;;22.50;30.60;;;;;;5046466;28;20033;-74
2021/04/04 09:18:43;;;;;;;6.40;1.08;;;22.50;30.60;;;;;;5050694;28;20021;-75
2021/04/04 09:21:09;;;;;;;6.15;0.32;;;22.50;30.60;;;;;;5027065;28;20174;-75
2021/04/04 09:23:35;;;;;;;2.55;1.13;;;22.50;30.60;;;;;;5049782;28;20100;-75
2021/04/04 09:26:07;;;;;;;0.60;0.30;;;22.60;30.60;;;;;;5031046;28;22234;-75
2021/04/04 09:28:38;;;;;;;2.63;0.90;;;22.60;30.50;;;;;;5047883;28;20508;-76
2021/04/04 09:31:21;;;;;;;0.22;0.10;;;22.60;30.50;;;;;;5046717;28;20092;-75
2021/04/04 09:33:51;;;;;;;0.73;0.25;;;22.60;30.40;;;;;;5044206;28;20021;-75
2021/04/04 09:36:17;;;;;;;0.75;0.40;;;22.60;30.40;;;;;;5057548;28;20057;-74
2021/04/04 09:38:42;;;;;;;1.27;0.52;;;22.60;30.60;;;;;;5031095;28;20029;-71
2021/04/04 09:41:10;;;;;;;0.65;0.52;;;22.60;30.50;;;;;;5030169;28;20030;-71
2021/04/04 09:44:05;;;;;;;2.58;0.85;;;22.60;30.50;;;;;;5026325;28;20037;-72
2021/04/04 09:46:31;;;;;;;5.82;0.45;;;22.60;30.40;;;;;;5030503;28;20035;-74
2021/04/04 09:48:56;;;;;;;1.13;0.85;;;22.70;30.30;;;;;;5032026;28;20505;-74
2021/04/04 09:51:22;;;;;;;2.67;0.80;;;22.70;30.30;;;;;;5019639;28;20034;-74
2021/04/04 09:53:49;;;;;;;0.35;0.30;;;22.70;30.20;;;;;;5031841;28;20528;-75
2021/04/04 09:56:16;;;;;;;1.48;1.08;;;22.70;30.10;;;;;;5024022;28;20033;-71
2021/04/04 09:58:51;;;;;;;2.05;1.27;;;22.70;30.00;;;;;;5031536;28;20026;-71
2021/04/04 10:01:23;;;;;;;4.68;1.25;;;22.70;30.00;;;;;;5028022;28;20096;-72
2021/04/04 10:04:03;;;;;;;2.05;1.08;;;22.80;30.00;;;;;;5029724;28;20014;-72
2021/04/04 10:06:36;;;;;;;0.38;0.22;;;22.80;30.00;;;;;;5032631;28;20073;-71
2021/04/04 10:09:05;;;;;;;0.68;0.63;;;22.80;30.00;;;;;;5009785;28;20066;-72
2021/04/04 10:11:32;;;;;;;0.82;0.68;;;22.80;30.00;;;;;;5025785;28;20048;-72
2021/04/04 10:14:09;;;;;;;2.92;0.85;;;22.80;29.90;;;;;;5028179;28;20037;-74
2021/04/04 10:16:37;;;;;;;4.10;1.33;;;22.80;29.90;;;;;;5026918;28;20021;-75
2021/04/04 10:19:07;;;;;;;2.97;1.15;;;22.90;29.90;;;;;;5028197;28;20432;-75
2021/04/04 10:21:37;;;;;;;5.90;1.08;;;22.90;29.90;;;;;;5023078;28;20478;-74
2021/04/04 10:24:28;;;;;;;2.78;1.60;;;22.80;29.80;;;;;;5030879;28;20417;-75
2021/04/04 10:27:19;;;;;;;1.08;0.77;;;22.90;29.90;;;;;;5056230;28;20520;-74
2021/04/04 10:29:45;;;;;;;1.48;0.90;;;22.90;29.80;;;;;;5027077;28;20033;-74
2021/04/04 10:32:10;;;;;;;4.30;1.23;;;22.90;29.80;;;;;;5026857;28;20416;-74
2021/04/04 10:34:43;;;;;;;3.90;2.10;;;23.00;29.70;;;;;;5015422;28;20044;-75
2021/04/04 10:37:09;;;;;;;4.60;0.80;;;23.00;29.70;;;;;;5053651;28;20059;-74
2021/04/04 10:39:34;;;;;;;2.63;0.80;;;23.00;29.70;;;;;;5049859;28;20762;-74
2021/04/04 10:42:20;;;;;;;6.68;1.73;;;23.00;29.70;;;;;;5067047;28;20447;-74
2021/04/04 10:44:48;;;;;;;3.90;1.67;;;23.00;29.60;;;;;;5071832;28;20028;-74
2021/04/04 10:47:17;;;;;;;3.47;1.83;;;23.00;29.60;;;;;;5054947;28;20500;-74
2021/04/04 10:50:29;;;;;;;0.82;0.57;;;23.00;29.60;;;;;;5066040;28;20025;-74
2021/04/04 10:52:55;;;;;;;2.15;1.60;;;23.00;29.50;;;;;;5070133;28;20076;-73
2021/04/04 10:55:20;;;;;;;4.88;1.67;;;23.00;29.50;;;;;;5042906;28;20441;-74
2021/04/04 10:57:46;;;;;;;2.55;1.35;;;23.00;29.50;;;;;;5053552;28;20024;-74
2021/04/04 11:00:12;;;;;;;1.92;1.30;;;23.00;29.50;;;;;;5069348;28;20025;-75
2021/04/04 11:02:38;;;;;;;1.73;1.23;;;23.00;29.40;;;;;;5050427;28;20361;-75
2021/04/04 11:05:05;;;;;;;4.15;2.65;;;23.10;29.40;;;;;;5067741;28;20488;-75
2021/04/04 11:07:32;;;;;;;4.55;1.35;;;23.10;29.40;;;;;;5033467;28;20029;-75
2021/04/04 11:09:57;;;;;;;4.90;2.22;;;23.10;29.80;;;;;;5045867;28;20531;-75
2021/04/04 11:12:23;;;;;;;2.22;1.55;;;23.20;29.30;;;;;;5046724;28;20082;-74
2021/04/04 11:14:48;;;;;;;2.72;1.30;;;23.20;29.20;;;;;;5074462;28;20392;-71
2021/04/04 11:17:17;;;;;;;0.80;0.52;;;23.20;29.20;;;;;;5037520;28;20020;-72
2021/04/04 11:19:47;;;;;;;9.75;2.97;;;23.20;29.20;;;;;;5078176;28;20572;-72
2021/04/04 11:22:15;;;;;;;5.18;2.67;;;23.20;29.30;;;;;;5053762;28;20068;-72
2021/04/04 11:25:00;;;;;;;1.42;1.30;;;23.30;29.20;;;;;;5067439;28;21247;-75
2021/04/04 11:27:48;;;;;;;2.63;1.52;;;23.30;29.20;;;;;;5034755;28;20075;-74
2021/04/04 11:30:15;;;;;;;0.90;0.75;;;23.40;29.20;;;;;;5034836;28;20028;-75
2021/04/04 11:32:42;;;;;;;1.30;0.60;;;23.40;29.10;;;;;;5036355;28;20070;-74
2021/04/04 11:35:09;;;;;;;3.80;1.95;;;23.50;29.00;;;;;;5070104;28;20077;-74
2021/04/04 11:37:39;;;;;;;3.28;1.80;;;23.50;29.00;;;;;;5057627;28;20102;-75
2021/04/04 11:40:11;;;;;;;8.75;4.13;;;23.60;28.90;;;;;;5064993;28;20095;-74
2021/04/04 11:42:36;;;;;;;4.97;2.20;;;23.60;28.80;;;;;;5070787;28;20033;-74
2021/04/04 11:45:02;;;;;;;1.98;0.85;;;23.70;28.70;;;;;;5048777;28;20028;-74
2021/04/04 11:48:18;;;;;;;1.23;0.95;;;23.70;28.60;;;;;;5067888;28;20531;-74
2021/04/04 11:50:44;;;;;;;2.78;1.35;;;23.80;28.60;;;;;;5061418;28;20025;-75
2021/04/04 11:53:59;;;;;;;5.72;2.50;;;23.80;28.60;;;;;;5075614;28;20044;-75
2021/04/04 11:56:41;;;;;;;1.98;0.93;;;23.80;28.50;;;;;;4957984;28;20420;-75
2021/04/04 11:59:06;;;;;;;4.60;2.28;;;23.90;28.50;;;;;;4946832;28;20047;-74
2021/04/04 12:01:32;;;;;;;2.58;1.73;;;23.90;28.50;;;;;;4950387;28;20051;-74
2021/04/04 12:04:44;;;;;;;1.70;0.95;;;24.00;28.50;;;;;;4963657;28;20519;-75
2021/04/04 12:07:11;;;;;;;2.35;1.63;;;24.00;28.40;;;;;;4974226;28;20042;-75
2021/04/04 12:09:37;;;;;;;0.77;0.77;;;24.10;28.30;;;;;;4941764;28;20058;-75
2021/04/04 12:12:04;;;;;;;2.90;0.63;;;24.10;28.30;;;;;;4946835;28;20030;-74
2021/04/04 12:14:30;;;;;;;4.53;1.83;;;24.20;28.30;;;;;;4940343;28;20546;-72
2021/04/04 12:16:55;;;;;;;1.65;0.50;;;24.30;28.20;;;;;;4948674;28;20215;-72
2021/04/04 12:19:27;;;;;;;4.65;1.60;;;24.30;28.20;;;;;;4969765;28;20043;-72
2021/04/04 12:21:53;;;;;;;2.65;1.90;;;24.30;28.10;;;;;;4969414;28;20032;-72
2021/04/04 12:24:38;;;;;;;7.25;2.35;;;24.40;28.10;;;;;;4935052;29;20415;-71
2021/04/04 12:27:04;;;;;;;9.63;3.42;;;24.40;28.00;;;;;;4958231;28;20661;-71
2021/04/04 12:29:38;;;;;;;7.63;2.40;;;24.40;27.90;;;;;;4953188;28;20126;-71
2021/04/04 12:35:26;;;;;;;1.27;1.02;;;24.40;27.80;;;;;;5070516;28;20055;-74
2021/04/04 12:37:52;;;;;;;5.07;1.55;;;24.40;27.80;;;;;;5044064;28;20037;-71
2021/04/04 12:40:17;;;;;;;4.80;2.03;;;24.40;27.80;;;;;;5079739;28;20040;-72
2021/04/04 12:42:57;;;;;;;1.33;1.02;;;24.30;27.80;;;;;;5072877;28;20035;-71
2021/04/04 12:45:36;;;;;;;4.60;2.17;;;24.30;27.80;;;;;;5081493;28;20037;-71
2021/04/04 12:48:12;;;;;;;1.13;1.02;;;24.30;27.90;;;;;;5032284;28;20122;-71
2021/04/04 12:50:37;;;;;;;;;;;24.30;27.90;;;;;;5054211;28;20061;-72
2021/04/04 12:53:03;;;;;;;7.00;1.00;;;24.40;27.90;;;;;;5072435;28;20367;-72
2021/04/04 12:55:41;;;;;;;2.33;1.75;;;24.40;27.90;;;;;;5072120;28;20020;-71
2021/04/04 12:58:07;;;;;;;0.60;0.45;;;24.50;27.90;;;;;;5064357;28;20154;-71
2021/04/04 13:00:38;;;;;;;5.93;2.60;;;24.50;27.90;;;;;;5056562;28;20037;-71
2021/04/04 13:03:18;;;;;;;0.95;0.65;;;24.60;27.80;;;;;;5070064;28;20024;-71
2021/04/04 13:05:52;;;;;;;5.07;1.58;;;24.60;27.80;;;;;;5061616;28;20021;-71
2021/04/04 13:08:27;;;;;;;8.13;3.33;;;24.60;27.70;;;;;;5075744;28;20119;-74
2021/04/04 13:10:57;;;;;;;2.47;1.83;;;24.70;27.70;;;;;;5054406;28;20313;-75
2021/04/04 13:13:52;;;;;;;1.55;0.82;;;24.80;27.60;;;;;;5056857;28;20041;-74
2021/04/04 13:16:18;;;;;;;1.08;1.00;;;24.80;27.50;;;;;;5035811;28;20088;-75
2021/04/04 13:18:50;;;;;;;1.75;0.68;;;24.80;27.50;;;;;;5031573;28;20029;-75
2021/04/04 13:21:20;;;;;;;0.65;0.65;;;24.80;27.50;;;;;;5023992;28;20050;-75
2021/04/04 13:23:50;;;;;;;3.50;1.30;;;24.90;27.50;;;;;;5029472;28;20033;-74
2021/04/04 13:26:17;;;;;;;4.85;1.38;;;24.90;27.50;;;;;;5031959;28;20040;-75